Monticello, Maine
Current Conditions -  °F | °C
As of 3:07 PM on Monday 24 Nov 2014 (Local Time) from KHUL Reporting Station
Light Rain Light Rain  
Wind Chill: 52°   Ceiling: 900
Heat Index: 52°   Visibility: 1.7mi
Dew Point: 50°   Wind: 14mph
Humidity: 93%   Direction: 150°SSE
Pressure: 29.57"   Gusts: 23mph
Location:  46.31°N, 67.84°W
Report Text: KHUL 242007Z AUTO 15012G20KT 1 3/4SM -RA BR BKN009 OVC012 11/10 A2957 RMK AO2 P0000 T01110100
Loading
Personal Weather Stations






























Interactive Weather Map New forecast layout! Learn more

10-Day Weather Forecast

Advertisements
Track Severe Weather on mobile